createdAt,value
2023-04-14T00:02:38.428Z,91
2023-04-14T00:07:44.999Z,90.5
2023-04-14T00:12:51.563Z,90
2023-04-14T00:17:58.160Z,89.5
2023-04-14T00:23:03.994Z,89.5
2023-04-14T00:28:10.552Z,89.5
2023-04-14T00:33:17.189Z,89.5
2023-04-14T00:38:23.688Z,89.5
2023-04-14T00:43:29.540Z,89.5
2023-04-14T00:48:36.112Z,88.5
2023-04-14T00:53:42.679Z,88.5
2023-04-14T00:58:49.240Z,88.5
2023-04-14T01:03:55.817Z,88.5
2023-04-14T01:09:02.379Z,89
2023-04-14T01:14:08.957Z,89.5
2023-04-14T01:19:15.540Z,89.5
2023-04-14T01:24:22.108Z,90.5
2023-04-14T01:29:28.711Z,90.5
2023-04-14T01:34:35.243Z,90
2023-04-14T01:39:41.823Z,90
2023-04-14T01:44:48.395Z,90.5
2023-04-14T01:49:54.256Z,91
2023-04-14T01:55:00.807Z,91
2023-04-14T02:00:07.396Z,91
2023-04-14T02:05:13.950Z,91
2023-04-14T02:10:20.540Z,91
2023-04-14T02:15:27.084Z,91
2023-04-14T02:20:33.669Z,91
2023-04-14T02:25:40.221Z,90.5
2023-04-14T02:30:46.802Z,90.5
2023-04-14T02:35:53.377Z,90.5
2023-04-14T02:40:59.942Z,90
2023-04-14T02:46:06.525Z,90.5
2023-04-14T02:51:13.109Z,90.5
2023-04-14T02:56:18.982Z,91
2023-04-14T03:01:25.534Z,91
2023-04-14T03:06:32.095Z,91
2023-04-14T03:11:38.663Z,91
2023-04-14T03:16:45.232Z,91.5
2023-04-14T03:21:51.877Z,92
2023-04-14T03:26:58.420Z,91.5
2023-04-14T03:32:04.994Z,91.5
2023-04-14T03:37:11.550Z,91
2023-04-14T03:42:18.133Z,91
2023-04-14T03:47:24.686Z,91
2023-04-14T03:52:31.271Z,92
2023-04-14T03:57:37.844Z,92.5
2023-04-14T04:02:43.685Z,92.5
2023-04-14T04:07:50.252Z,94
2023-04-14T04:12:56.825Z,94.5
2023-04-14T04:18:03.394Z,94.5
2023-04-14T04:23:09.991Z,95
2023-04-14T04:28:16.546Z,94.5
2023-04-14T04:33:23.116Z,94.5
2023-04-14T04:38:29.674Z,94.5
2023-04-14T04:43:36.257Z,94.5
2023-04-14T04:48:42.841Z,94.5
2023-04-14T04:53:49.396Z,94.5
2023-04-14T04:58:55.970Z,94.5
2023-04-14T05:04:02.542Z,94.5
2023-04-14T05:09:08.393Z,94.5
2023-04-14T05:14:14.966Z,94.5
2023-04-14T05:19:21.538Z,94.5
2023-04-14T05:24:28.107Z,94.5
2023-04-14T05:29:34.689Z,94.5
2023-04-14T05:34:41.241Z,94
2023-04-14T05:39:47.825Z,94
2023-04-14T05:44:54.378Z,93.5
2023-04-14T05:50:01.004Z,93.5
2023-04-14T05:55:07.585Z,93.5
2023-04-14T06:00:14.156Z,93.5
2023-04-14T06:05:20.811Z,93
2023-04-14T06:10:27.466Z,92.5
2023-04-14T06:15:33.237Z,92.5
2023-04-14T06:20:39.662Z,92.5
2023-04-14T06:25:46.227Z,92.5
2023-04-14T06:30:52.846Z,92
2023-04-14T06:35:59.374Z,92
2023-04-14T06:41:05.940Z,92
2023-04-14T06:46:12.520Z,91.5
2023-04-14T06:51:19.081Z,92
2023-04-14T06:56:25.670Z,91
2023-04-14T07:01:32.232Z,91.5
2023-04-14T07:06:38.797Z,91.5
2023-04-14T07:11:45.373Z,91.5
2023-04-14T07:16:51.951Z,91
2023-04-14T07:21:57.868Z,90
2023-04-14T07:27:04.366Z,90
2023-04-14T07:32:10.936Z,87.5
2023-04-14T07:37:17.485Z,87
2023-04-14T07:42:24.062Z,85.5
2023-04-14T07:47:30.715Z,85
2023-04-14T07:52:37.193Z,85
2023-04-14T07:57:43.796Z,84
2023-04-14T08:02:50.394Z,84.5
2023-04-14T08:07:56.904Z,84.5
2023-04-14T08:13:03.489Z,85
2023-04-14T08:18:10.054Z,86
2023-04-14T08:23:16.792Z,88
2023-04-14T08:28:22.460Z,92
2023-04-14T08:33:29.192Z,92.5
2023-04-14T08:38:35.594Z,93
2023-04-14T08:43:42.241Z,93.5
2023-04-14T08:48:48.870Z,93.5
2023-04-14T08:53:55.342Z,94
2023-04-14T08:59:01.990Z,94
2023-04-14T09:04:08.609Z,94.5
2023-04-14T09:09:15.081Z,94
2023-04-14T09:14:21.634Z,94
2023-04-14T09:19:28.165Z,95
2023-04-14T09:24:34.841Z,93
2023-04-14T09:29:41.419Z,94
2023-04-14T09:34:47.316Z,93
2023-04-14T09:39:53.924Z,92.5
2023-04-14T09:45:00.331Z,92.5
2023-04-14T09:50:06.845Z,90.5
2023-04-14T09:55:13.426Z,89.5
2023-04-14T10:00:20.042Z,89.5
2023-04-14T10:05:26.585Z,88
2023-04-14T10:10:33.306Z,88
2023-04-14T10:15:39.728Z,88.5
2023-04-14T10:20:46.273Z,87
2023-04-14T10:25:52.833Z,88
2023-04-14T10:30:59.412Z,88
2023-04-14T10:36:05.970Z,90
2023-04-14T10:41:11.826Z,91
2023-04-14T10:46:18.393Z,90.5
2023-04-14T10:51:25.028Z,90.5
2023-04-14T10:56:31.591Z,89.5
2023-04-14T11:01:38.166Z,91
2023-04-14T11:06:44.736Z,89.5
2023-04-14T11:11:51.280Z,87.5
2023-04-14T11:16:57.878Z,88.5
2023-04-14T11:22:04.445Z,86.5
2023-04-14T11:27:11.000Z,87
2023-04-14T11:32:17.566Z,87
2023-04-14T11:37:24.163Z,84.5
2023-04-14T11:42:30.760Z,85.5
2023-04-14T11:47:36.567Z,88.5
2023-04-14T11:52:43.144Z,89.5
2023-04-14T11:57:49.841Z,90
2023-04-14T12:02:56.364Z,90.5
2023-04-14T12:08:03.011Z,91.5
2023-04-14T12:13:09.544Z,92
2023-04-14T12:18:16.183Z,92
2023-04-14T12:23:22.535Z,92
2023-04-14T12:28:29.148Z,92.5
2023-04-14T12:33:35.898Z,93
2023-04-14T12:38:42.370Z,93.5
2023-04-14T12:43:48.944Z,93
2023-04-14T12:54:02.185Z,93.5
2023-04-14T12:59:07.955Z,94
2023-04-14T13:04:14.534Z,93
2023-04-14T13:09:21.066Z,93
2023-04-14T13:14:27.704Z,95
2023-04-14T13:19:34.132Z,94.5
2023-04-14T13:24:40.831Z,94.5
2023-04-14T13:29:47.386Z,94.5
2023-04-14T13:34:53.965Z,94.5
2023-04-14T13:40:00.576Z,94.5
2023-04-14T13:45:07.030Z,94
2023-04-14T13:50:13.571Z,94
2023-04-14T13:55:20.168Z,94
2023-04-14T14:00:26.646Z,95.5
2023-04-14T14:05:32.632Z,95
2023-04-14T14:10:39.222Z,95.5
2023-04-14T14:15:45.609Z,96.5
2023-04-14T14:20:52.348Z,96.5
2023-04-14T14:25:58.945Z,96.5
2023-04-14T14:31:05.406Z,97
2023-04-14T14:36:12.082Z,98
2023-04-14T14:41:18.640Z,97.5
2023-04-14T14:46:25.254Z,95.5
2023-04-14T14:51:31.762Z,96.5
2023-04-14T14:56:38.354Z,97
2023-04-14T15:01:44.870Z,97.5
2023-04-14T15:06:51.451Z,97.5
2023-04-14T15:11:57.341Z,97.5
2023-04-14T15:17:03.723Z,98.5
2023-04-14T15:22:10.494Z,99
2023-04-14T15:27:17.044Z,99
2023-04-14T15:37:30.223Z,98
2023-04-14T15:42:36.813Z,98
2023-04-14T15:47:43.349Z,98.5
2023-04-14T15:52:49.860Z,97.5
2023-04-14T15:57:56.472Z,96.5
2023-04-14T16:03:03.045Z,96.5
2023-04-14T16:08:09.527Z,96.5
2023-04-14T16:13:16.195Z,97
2023-04-14T16:18:22.026Z,97
2023-04-14T16:23:28.624Z,97.5
2023-04-14T16:28:35.199Z,98.5
2023-04-14T16:33:41.771Z,99.5
2023-04-14T16:38:48.146Z,99.5
2023-04-14T16:43:54.731Z,99.5
2023-04-14T16:49:01.288Z,99
2023-04-14T16:54:07.850Z,99.5
2023-04-14T16:59:14.851Z,99.5
2023-04-14T17:04:21.111Z,99.5
2023-04-14T17:09:27.728Z,99.5
2023-04-14T17:14:34.260Z,99.5
2023-04-14T17:19:40.877Z,99.5
2023-04-14T17:24:46.654Z,99.5
2023-04-14T17:29:53.256Z,99.5
2023-04-14T17:34:59.842Z,99.5
2023-04-14T17:40:06.423Z,99.5
2023-04-14T17:45:12.981Z,99.5
2023-04-14T17:50:18.807Z,99.5
2023-04-14T17:55:25.389Z,99.5
2023-04-14T18:00:31.946Z,99.5
2023-04-14T18:05:38.479Z,99.5
2023-04-14T18:10:45.069Z,99.5
2023-04-14T18:15:51.514Z,99.5
2023-04-14T18:20:58.081Z,99.5
2023-04-14T18:26:04.730Z,99.5
2023-04-14T18:31:11.339Z,99.5
2023-04-14T18:36:17.828Z,99.5
2023-04-14T18:41:24.397Z,99.5
2023-04-14T18:46:30.953Z,99.5
2023-04-14T18:51:37.564Z,99.5
2023-04-14T18:56:43.353Z,99.5
2023-04-14T19:01:49.930Z,99.5
2023-04-14T19:06:56.495Z,99.5
2023-04-14T19:12:03.150Z,99.5
2023-04-14T19:17:09.646Z,99.5
2023-04-14T19:22:16.214Z,99.5
2023-04-14T19:32:29.346Z,99.5
2023-04-14T19:37:36.025Z,99.5
2023-04-14T19:42:42.502Z,99.5
2023-04-14T19:47:49.072Z,99.5
2023-04-14T19:52:55.695Z,99.5
2023-04-14T19:58:02.245Z,99.5
2023-04-14T20:03:08.073Z,99.5
2023-04-14T20:08:14.639Z,99.5
2023-04-14T20:13:21.233Z,99.5
2023-04-14T20:18:27.864Z,99.5
2023-04-14T20:23:34.451Z,99.5
2023-04-14T20:28:40.920Z,99.5
2023-04-14T20:33:47.506Z,99.5
2023-04-14T20:38:54.196Z,99.5
2023-04-14T20:44:00.667Z,99.5
2023-04-14T20:49:07.263Z,99.5
2023-04-14T20:54:13.799Z,99.5
2023-04-14T21:04:26.969Z,99.5
2023-04-14T21:09:32.869Z,99.5
2023-04-14T21:14:39.349Z,99.5
2023-04-14T21:19:46.054Z,99.5
2023-04-14T21:29:59.054Z,99.5
2023-04-14T21:35:05.639Z,99.5
2023-04-14T21:40:12.192Z,99.5
2023-04-14T21:45:18.813Z,99.5
2023-04-14T21:55:31.921Z,99.5
2023-04-14T22:00:37.823Z,99.5
2023-04-14T22:05:43.634Z,99.5
2023-04-14T22:10:50.201Z,99.5
2023-04-14T22:15:56.806Z,99.5
2023-04-14T22:21:03.353Z,99.5
2023-04-14T22:26:09.930Z,99.5
2023-04-14T22:31:16.485Z,99.5
2023-04-14T22:36:23.113Z,99.5
2023-04-14T22:41:29.648Z,99.5
2023-04-14T22:46:36.191Z,99.5
2023-04-14T22:51:42.777Z,99.5
2023-04-14T22:56:48.663Z,99.5
2023-04-14T23:01:54.500Z,99.5
2023-04-14T23:07:01.074Z,99.5
2023-04-14T23:12:07.680Z,99.5
2023-04-14T23:22:20.805Z,99.5
2023-04-14T23:27:27.361Z,99.5
2023-04-14T23:37:40.486Z,99.5
2023-04-14T23:42:47.090Z,99.5
2023-04-14T23:47:53.636Z,99.5
2023-04-14T23:53:00.221Z,99.5
2023-04-14T23:58:06.775Z,99.5
